• Join FlightAware (Why Join?)
  • Login
  • US Flag 
10:17PM EDT


 

Airport Tracker/Info


-or-


 

Live Flight TrackerFlight Track Log ✈ ASQ4252 ✈ 10-Jun-2013 ✈ KIAH - KBNA

Flight Track Log - Related Links

Times and Time Zones

All times are in EDT time to prevent confusion due to time zone crossing. See the ASQ4252 flight status page for this flight to view local times or setup timezone preferences in your user account.

Time Position Orientation Groundspeed Altitude Reporting Facility
EDT Latitude Longitude Course Direction KTS MPH feet Rate Location/Type
01:56PM 29.9547 -95.3372 35° Northeast 167 192 900  Level Houston Center
01:57PM 29.9494 -95.3017 100° East 199 229 2,000 1,380 Climbing Houston Center
01:57PM 29.9675 -95.2875 34° Northeast 198 228 2,600 1,440 Climbing Houston Center
01:58PM 30.0339 -95.2817 North 233 268 4,200 1,980 Climbing Houston Center
01:59PM 30.3438 -95.0450 35° Northeast  Level FlightAware Approximate
01:59PM 30.1167 -95.2456 21° North 264 304 6,800  Level Houston Center
02:00PM 30.4315 -94.9685 41° Northeast  Level FlightAware Approximate
02:00PM 30.1789 -95.1953 35° Northeast 272 313 8,700  Level Houston Center
02:01PM 30.5234 -94.9046 35° Northeast  Level FlightAware Approximate
02:01PM 30.2458 -95.1414 35° Northeast 290 334 10,100  Level Houston Center
02:02PM 30.3192 -95.0825 35° Northeast 317 365 11,200 960 Climbing Houston Center
02:03PM 30.3978 -95.0186 35° Northeast 341 392 12,200 960 Climbing Houston Center
02:04PM 30.4839 -94.9483 35° Northeast 355 409 13,300 1,020 Climbing Houston Center
02:05PM 30.5653 -94.8817 35° Northeast 358 412 14,400 1,080 Climbing Houston Center
02:06PM 30.6478 -94.8194 33° Northeast 354 407 15,600 960 Climbing Houston Center
02:07PM 30.7408 -94.7483 33° Northeast 354 407 16,500 780 Climbing Houston Center
02:08PM 30.8292 -94.6797 34° Northeast 360 414 17,300 720 Climbing Houston Center
02:09PM 30.9122 -94.6142 34° Northeast 362 417 18,000 720 Climbing Houston Center
02:10PM 30.9964 -94.5494 33° Northeast 365 420 18,800 780 Climbing Houston Center
02:11PM 31.0806 -94.4842 34° Northeast 367 422 19,600 840 Climbing Houston Center
02:12PM 31.1853 -94.4036 33° Northeast 379 436 20,600 900 Climbing Houston Center
02:13PM 31.2733 -94.3344 34° Northeast 384 442 21,500 900 Climbing Houston Center
02:15PM 31.3603 -94.2669 34° Northeast 380 437 22,500 960 Climbing Houston Center
02:16PM 31.4469 -94.1992 34° Northeast 376 433 23,500 960 Climbing Houston Center
02:17PM 31.5331 -94.1283 35° Northeast 377 434 24,500 1,020 Climbing Houston Center
02:18PM 31.6231 -94.0256 44° Northeast 377 434 25,700 1,020 Climbing Houston Center
02:19PM 31.7008 -93.9386 44° Northeast 385 443 26,700 960 Climbing Houston Center
02:20PM 31.7772 -93.8519 44° Northeast 384 442 27,700 960 Climbing Houston Center
02:21PM 31.8522 -93.7664 44° Northeast 388 447 28,700 960 Climbing Houston Center
02:22PM 31.9311 -93.6781 44° Northeast 391 450 29,700 960 Climbing Houston Center
02:23PM 32.0100 -93.5878 44° Northeast 393 452 30,700 1,140 Climbing Houston Center
02:24PM 32.1031 -93.4800 44° Northeast 393 452 32,100 1,200 Climbing Houston Center
02:25PM 32.1503 -93.4286 43° Northeast 382 440 32,800 1,020 Climbing Fort Worth Center
02:26PM 32.2286 -93.3319 46° Northeast 394 453 33,900 1,020 Climbing Fort Worth Center
02:27PM 32.3053 -93.2450 44° Northeast 394 453 34,900 540 Climbing Fort Worth Center
02:28PM 32.3833 -93.1528 45° Northeast 394 453 35,000  Climbing Fort Worth Center
02:29PM 32.4658 -93.0578 44° Northeast 395 455 35,000  Level Fort Worth Center
02:30PM 32.5542 -92.9575 44° Northeast 407 468 35,000  Level Fort Worth Center
02:31PM 32.6422 -92.8569 44° Northeast 428 493 35,000  Level Fort Worth Center
02:32PM 32.7325 -92.7511 45° Northeast 440 506 35,000  Level Fort Worth Center
02:33PM 32.8225 -92.6500 43° Northeast 440 506 35,000  Level Fort Worth Center
02:34PM 32.9064 -92.5492 45° Northeast 434 499 35,000  Level Fort Worth Center
02:35PM 32.9942 -92.4453 45° Northeast 439 505 35,000  Level Fort Worth Center
02:36PM 33.0819 -92.3436 44° Northeast 434 499 35,000  Level Fort Worth Center
02:38PM 33.2797 -92.1142 44° Northeast 438 504 35,000  Level Memphis Center
02:39PM 33.3708 -92.0089 44° Northeast 445 512 35,000  Level Memphis Center
02:40PM 33.4578 -91.9011 46° Northeast 445 512 35,000  Level Memphis Center
02:41PM 33.5467 -91.7978 44° Northeast 445 512 35,000  Level Memphis Center
02:42PM 33.6356 -91.6869 46° Northeast 445 512 35,000  Level Memphis Center
02:43PM 33.7222 -91.5783 46° Northeast 445 512 35,000  Level Memphis Center
02:44PM 33.8067 -91.4747 46° Northeast 445 512 35,000  Level Memphis Center
02:45PM 33.8975 -91.3633 45° Northeast 450 518 35,000  Level Memphis Center
02:46PM 33.9881 -91.2539 45° Northeast 449 517 35,000  Level Memphis Center
02:47PM 34.0783 -91.1472 44° Northeast 448 516 35,000  Level Memphis Center
02:48PM 34.1689 -91.0375 45° Northeast 453 521 35,000  Level Memphis Center
02:49PM 34.2464 -90.9400 46° Northeast 453 521 35,000  Level Memphis Center
02:50PM 34.3347 -90.8325 45° Northeast 448 516 35,000  Level Memphis Center
02:51PM 34.4247 -90.7222 45° Northeast 448 516 35,000  Level Memphis Center
02:52PM 34.5125 -90.6142 45° Northeast 448 516 35,000  Level Memphis Center
02:53PM 34.6025 -90.5058 45° Northeast 448 516 35,000  Level Memphis Center
02:54PM 34.6903 -90.3950 46° Northeast 448 516 35,000  Level Memphis Center
02:55PM 34.7883 -90.2736 45° Northeast 448 516 35,000  Level Memphis Center
02:56PM 34.8736 -90.1697 45° Northeast 443 510 35,000  Level Memphis Center
02:57PM 34.9569 -90.0658 46° Northeast 436 502 35,000  Level Memphis Center
02:58PM 35.0339 -89.9436 52° Northeast 436 502 35,000  Level Memphis Center
02:59PM 35.0792 -89.8114 67° East 446 513 35,000  Level Memphis Center
03:00PM 35.1242 -89.6664 69° East 456 525 35,000  Level Memphis Center
03:01PM 35.1733 -89.5189 68° East 462 532 35,000  Level Memphis Center
03:02PM 35.2225 -89.3683 68° East 467 537 35,000  Level Memphis Center
03:03PM 35.2692 -89.2253 68° East 467 537 35,000 -420 Level Memphis Center
03:04PM 35.3219 -89.0694 67° East 456 525 34,200 -900 Descending Memphis Center
03:05PM 35.3683 -88.9211 69° East 456 525 33,200 -1,080 Descending Memphis Center
03:06PM 35.4164 -88.7725 68° East 456 525 32,100 -1,320 Descending Memphis Center
03:07PM 35.4606 -88.6339 69° East 451 519 30,600 -1,500 Descending Memphis Center
03:08PM 35.5044 -88.4978 68° East 439 505 29,100 -1,500 Descending Memphis Center
03:09PM 35.5503 -88.3617 67° East 431 496 27,600 -1,440 Descending Memphis Center
03:10PM 35.5939 -88.2225 69° East 431 496 26,300 -1,140 Descending Memphis Center
03:11PM 35.6314 -88.1092 68° East 425 489 25,400 -960 Descending Memphis Center
03:12PM 35.6747 -87.9725 69° East 415 478 24,400 -1,020 Descending Memphis Center
03:13PM 35.7158 -87.8386 69° East 415 478 23,400 -1,080 Descending Memphis Center
03:14PM 35.7339 -87.7025 81° East 405 466 22,300 -1,800 Descending Memphis Center
03:15PM 35.7308 -87.5567 91° East 413 475 19,900 -2,520 Descending Memphis Center
03:16PM 35.7108 -87.4142 100° East 423 487 17,300 -2,460 Descending Memphis Center
03:17PM 35.7028 -87.2636 94° East 409 471 15,000 -2,340 Descending Memphis Center
03:18PM 35.7017 -87.1333 91° East 395 455 12,700 -2,340 Descending Memphis Center
03:19PM 35.6983 -87.0083 92° East 373 429 10,400 -1,440 Descending Memphis Center
03:20PM 35.7014 -86.8906 88° East 349 402 9,900 -540 Descending Memphis Center
03:21PM 35.7006 -86.7858 91° East 317 365 9,400 -780 Descending Memphis Center
03:22PM 35.7461 -86.7069 55° Northeast 290 334 8,400 -780 Descending Memphis Center
03:23PM 35.8089 -86.6378 42° Northeast 283 326 7,900 -540 Descending Memphis Center
03:24PM 35.8650 -86.5686 45° Northeast 283 326 7,400 -780 Descending Memphis Center
03:25PM 35.9347 -86.5319 23° Northeast 272 313 6,400 -1,020 Descending Memphis Center
03:26PM 36.0031 -86.5161 11° North 254 292 5,400 -720 Descending Memphis Center
03:27PM 36.0675 -86.5028 North 242 278 5,000 -1,080 Descending Memphis Center
03:28PM 36.1242 -86.5206 346° North 215 247 3,300 -1,740 Descending Memphis Center